KMWH/MWH METAR and TAF weather

Enter ICAO airport designator
Station Type Date Time Source
KMWH METAR 2019/05/25 14:52 UTC NOAA

KMWH 251452Z 16012KT 10SM SCT070 OVC110 12/07 A2986 RMK AO2 SLP111 T01220067 51004


Station Type Date Time Source
KMWH Decoded METAR 2019/05/25 14:52 UTC NOAA

GRANT COUNTY AIRPORT, WA, United States (KMWH) 47-12N 119-19W 362M
May 25, 2019 - 10:52 AM EDT / 2019.05.25 1452 UTC
Wind: from the SSE (160 degrees) at 14 MPH (12 KT):0
Visibility: 10 mile(s):0
Sky conditions: overcast
Temperature: 54.0 F (12.2 C)
Dew Point: 44.1 F (6.7 C)
Relative Humidity: 69%
Pressure (altimeter): 29.86 in. Hg (1011 hPa)
Pressure tendency: 0.01 inches (0.4 hPa) higher than three hours ago
ob: KMWH 251452Z 16012KT 10SM SCT070 OVC110 12/07 A2986 RMK AO2 SLP111 T01220067 51004
cycle: 15

Station Type Date Time Source
KMWH TAF 2019/05/25 12:39 UTC NOAA

TAF KMWH 251136Z 2512/2612 21006KT P6SM VCSH BKN050 OVC070
FM251500 16004KT P6SM -SHRA BKN060 OVC080
FM252100 23005KT P6SM BKN060 BKN100
FM260000 35008KT P6SM SCT070 BKN250
FM260900 35013KT P6SM BKN070

Example: see airport list